createdAt,value
2022-11-25T00:01:58.264Z,19.08
2022-11-25T00:04:29.154Z,11.65
2022-11-25T00:06:59.199Z,12.10
2022-11-25T00:09:29.191Z,13.10
2022-11-25T00:11:59.207Z,11.10
2022-11-25T00:14:31.785Z,16.75
2022-11-25T00:17:02.221Z,9.55
2022-11-25T00:19:32.378Z,11.05
2022-11-25T00:22:02.465Z,7.07
2022-11-25T00:24:32.591Z,9.93
2022-11-25T00:27:04.944Z,8.00
2022-11-25T00:29:40.378Z,13.63
2022-11-25T00:32:10.551Z,10.55
2022-11-25T00:34:40.833Z,17.60
2022-11-25T00:37:11.341Z,12.45
2022-11-25T00:39:41.757Z,14.25
2022-11-25T00:42:25.196Z,15.52
2022-11-25T00:44:58.622Z,12.70
2022-11-25T00:47:29.527Z,15.32
2022-11-25T00:49:59.760Z,14.32
2022-11-25T00:52:30.770Z,20.10
2022-11-25T00:55:00.796Z,15.87
2022-11-25T00:57:30.772Z,11.60
2022-11-25T01:00:03.584Z,17.20
2022-11-25T01:02:33.696Z,10.63
2022-11-25T01:05:03.751Z,12.20
2022-11-25T01:07:33.817Z,13.02
2022-11-25T01:10:03.875Z,11.33
2022-11-25T01:12:33.838Z,13.33
2022-11-25T01:15:06.894Z,17.37
2022-11-25T01:17:37.866Z,12.57
2022-11-25T01:20:09.891Z,10.47
2022-11-25T01:22:39.949Z,11.07
2022-11-25T01:25:11.178Z,8.10
2022-11-25T01:27:43.156Z,12.47
2022-11-25T01:30:19.770Z,7.23
2022-11-25T01:32:49.776Z,8.23
2022-11-25T01:35:19.786Z,8.33
2022-11-25T01:37:49.777Z,8.23
2022-11-25T01:40:20.019Z,8.03
2022-11-25T01:42:50.876Z,10.13
2022-11-25T01:45:38.342Z,7.23
2022-11-25T01:48:17.142Z,7.57
2022-11-25T01:50:48.413Z,11.13
2022-11-25T01:53:21.413Z,8.90
2022-11-25T01:55:55.210Z,6.70
2022-11-25T01:58:29.653Z,8.07
2022-11-25T02:03:37.586Z,7.83
2022-11-25T02:06:13.912Z,8.05
2022-11-25T02:08:46.270Z,8.37
2022-11-25T02:11:18.826Z,9.60
2022-11-25T02:13:51.631Z,8.30
2022-11-25T02:16:24.473Z,7.10
2022-11-25T02:18:55.287Z,7.87
2022-11-25T02:21:29.204Z,9.43
2022-11-25T02:24:03.883Z,9.65
2022-11-25T02:26:37.250Z,6.23
2022-11-25T02:29:09.700Z,9.47
2022-11-25T02:31:40.349Z,6.50
2022-11-25T02:34:10.697Z,7.57
2022-11-25T02:36:40.905Z,6.80
2022-11-25T02:39:11.161Z,8.10
2022-11-25T02:41:46.674Z,7.17
2022-11-25T02:44:17.012Z,9.87
2022-11-25T02:46:47.170Z,6.33
2022-11-25T02:49:17.284Z,7.97
2022-11-25T02:51:48.162Z,6.87
2022-11-25T02:54:20.968Z,6.33
2022-11-25T02:56:54.810Z,6.30
2022-11-25T02:59:24.847Z,7.40
2022-11-25T03:01:55.165Z,5.43
2022-11-25T03:04:28.836Z,8.52
2022-11-25T03:06:59.461Z,9.77
2022-11-25T03:09:29.610Z,6.03
2022-11-25T03:12:14.731Z,8.67
2022-11-25T03:14:44.851Z,9.70
2022-11-25T03:17:15.903Z,6.87
2022-11-25T03:19:46.005Z,12.20
2022-11-25T03:22:16.081Z,8.00
2022-11-25T03:24:46.937Z,6.80
2022-11-25T03:27:19.711Z,8.27
2022-11-25T03:29:49.862Z,6.07
2022-11-25T03:32:20.052Z,7.00
2022-11-25T03:34:50.207Z,7.00
2022-11-25T03:37:20.417Z,6.63
2022-11-25T03:39:51.476Z,8.70
2022-11-25T03:42:24.396Z,7.83
2022-11-25T03:44:54.784Z,15.23
2022-11-25T03:47:24.784Z,6.70
2022-11-25T03:49:54.869Z,6.97
2022-11-25T03:52:25.089Z,10.27
2022-11-25T03:54:55.464Z,7.40
2022-11-25T03:57:31.504Z,12.60
2022-11-25T04:00:02.023Z,8.33
2022-11-25T04:02:36.643Z,11.37
2022-11-25T04:05:07.014Z,12.10
2022-11-25T04:07:37.339Z,15.77
2022-11-25T04:10:11.360Z,6.30
2022-11-25T04:12:47.137Z,14.43
2022-11-25T04:15:24.504Z,11.80
2022-11-25T04:17:59.410Z,11.30
2022-11-25T04:20:29.525Z,11.73
2022-11-25T04:23:06.324Z,10.00
2022-11-25T04:25:39.956Z,9.50
2022-11-25T04:28:17.879Z,11.27
2022-11-25T04:30:48.007Z,14.03
2022-11-25T04:33:18.496Z,9.67
2022-11-25T04:35:50.728Z,12.23
2022-11-25T04:38:21.099Z,10.27
2022-11-25T04:40:52.046Z,13.57
2022-11-25T04:43:28.211Z,15.33
2022-11-25T04:46:16.654Z,17.07
2022-11-25T04:48:50.675Z,20.87
2022-11-25T04:51:20.903Z,9.97
2022-11-25T04:53:54.924Z,9.40
2022-11-25T04:56:27.155Z,13.95
2022-11-25T04:59:13.791Z,10.20
2022-11-25T05:01:48.029Z,7.60
2022-11-25T05:04:31.542Z,10.60
2022-11-25T05:07:01.888Z,9.77
2022-11-25T05:09:32.501Z,11.27
2022-11-25T05:12:11.808Z,13.43
2022-11-25T05:14:44.887Z,11.20
2022-11-25T05:17:17.195Z,7.93
2022-11-25T05:19:48.195Z,12.57
2022-11-25T05:22:20.883Z,11.23
2022-11-25T05:24:51.290Z,12.27
2022-11-25T05:27:23.135Z,9.03
2022-11-25T05:29:56.445Z,10.23
2022-11-25T05:32:27.826Z,11.43
2022-11-25T05:35:01.374Z,11.03
2022-11-25T05:37:31.456Z,12.57
2022-11-25T05:40:09.110Z,12.53
2022-11-25T05:42:57.884Z,13.13
2022-11-25T05:45:30.598Z,14.53
2022-11-25T05:48:01.586Z,12.50
2022-11-25T05:50:32.772Z,10.27
2022-11-25T05:53:25.041Z,22.03
2022-11-25T05:55:59.007Z,15.63
2022-11-25T05:58:52.209Z,10.52
2022-11-25T06:01:25.086Z,9.53
2022-11-25T06:03:55.213Z,8.23
2022-11-25T06:06:25.408Z,15.13
2022-11-25T06:08:55.666Z,20.40
2022-11-25T06:11:27.290Z,14.03
2022-11-25T06:13:59.856Z,14.53
2022-11-25T06:16:33.209Z,17.80
2022-11-25T06:19:12.560Z,15.80
2022-11-25T06:21:43.015Z,15.23
2022-11-25T06:24:13.044Z,15.63
2022-11-25T06:26:45.108Z,19.30
2022-11-25T06:29:15.459Z,19.70
2022-11-25T06:31:52.521Z,18.08
2022-11-25T06:34:54.883Z,18.13
2022-11-25T06:37:37.441Z,20.00
2022-11-25T06:40:09.571Z,15.53
2022-11-25T06:42:43.396Z,14.03
2022-11-25T06:45:14.227Z,15.32
2022-11-25T06:47:46.871Z,11.80
2022-11-25T06:50:16.990Z,15.70
2022-11-25T06:52:47.272Z,20.53
2022-11-25T06:55:17.616Z,13.33
2022-11-25T06:57:47.602Z,16.87
2022-11-25T07:00:19.096Z,17.37
2022-11-25T07:02:51.810Z,13.47
2022-11-25T07:05:22.000Z,15.50
2022-11-25T07:07:52.186Z,18.07
2022-11-25T07:10:22.501Z,16.10
2022-11-25T07:12:53.064Z,16.70
2022-11-25T07:15:23.813Z,16.93
2022-11-25T07:17:56.402Z,13.17
2022-11-25T07:20:27.937Z,11.20
2022-11-25T07:22:58.303Z,30.40
2022-11-25T07:25:30.841Z,20.43
2022-11-25T07:28:01.108Z,20.43
2022-11-25T07:33:24.187Z,12.57
2022-11-25T07:35:54.239Z,11.70
2022-11-25T07:38:24.274Z,21.37
2022-11-25T07:40:54.354Z,30.77
2022-11-25T07:43:24.669Z,39.73
2022-11-25T07:45:54.925Z,43.97
2022-11-25T07:48:27.537Z,25.93
2022-11-25T07:50:57.625Z,18.53
2022-11-25T07:53:27.668Z,19.03
2022-11-25T07:55:57.669Z,13.73
2022-11-25T07:58:27.981Z,12.13
2022-11-25T08:00:58.328Z,11.20
2022-11-25T08:03:30.908Z,11.73
2022-11-25T08:06:03.613Z,16.00
2022-11-25T08:08:33.735Z,16.47
2022-11-25T08:11:04.693Z,24.63
2022-11-25T08:13:34.919Z,12.97
2022-11-25T08:16:05.361Z,15.17
2022-11-25T08:18:38.001Z,14.10
2022-11-25T08:21:09.963Z,14.00
2022-11-25T08:23:43.297Z,16.67
2022-11-25T08:26:15.038Z,16.40
2022-11-25T08:28:45.433Z,17.90
2022-11-25T08:31:18.351Z,17.13
2022-11-25T08:33:51.830Z,20.20
2022-11-25T08:36:23.093Z,24.23
2022-11-25T08:38:57.575Z,22.40
2022-11-25T08:43:59.959Z,17.10
2022-11-25T08:46:34.303Z,16.77
2022-11-25T08:51:40.190Z,17.03
2022-11-25T08:54:11.311Z,10.70
2022-11-25T08:56:41.303Z,17.27
2022-11-25T08:59:11.582Z,15.73
2022-11-25T09:01:41.637Z,19.00
2022-11-25T09:04:14.293Z,12.80
2022-11-25T09:06:44.337Z,17.37
2022-11-25T09:09:14.347Z,11.13
2022-11-25T09:11:44.440Z,10.13
2022-11-25T09:14:14.876Z,12.25
2022-11-25T09:16:45.587Z,8.63
2022-11-25T09:19:18.333Z,19.67
2022-11-25T09:21:48.417Z,9.57
2022-11-25T09:24:18.412Z,13.95
2022-11-25T09:26:49.427Z,10.50
2022-11-25T09:29:19.606Z,12.63
2022-11-25T09:31:54.811Z,9.90
2022-11-25T09:34:27.901Z,12.48
2022-11-25T09:36:58.229Z,11.65
2022-11-25T09:39:31.074Z,10.05
2022-11-25T09:42:24.478Z,11.93
2022-11-25T09:45:18.433Z,11.25
2022-11-25T09:47:57.999Z,8.68
2022-11-25T09:50:47.677Z,8.27
2022-11-25T09:53:36.152Z,9.52
2022-11-25T09:56:09.496Z,8.07
2022-11-25T09:58:44.076Z,6.65
2022-11-25T10:01:19.781Z,8.57
2022-11-25T10:03:55.515Z,8.57
2022-11-25T10:06:30.129Z,4.28
2022-11-25T10:09:03.426Z,7.90
2022-11-25T10:11:51.269Z,6.15
2022-11-25T10:14:31.159Z,4.55
2022-11-25T10:17:08.662Z,5.47
2022-11-25T10:19:46.537Z,5.45
2022-11-25T10:22:29.578Z,6.25
2022-11-25T10:25:03.006Z,5.43
2022-11-25T10:27:43.981Z,6.33
2022-11-25T10:30:19.715Z,5.38
2022-11-25T10:32:59.203Z,5.18
2022-11-25T10:35:36.331Z,6.63
2022-11-25T10:38:19.023Z,6.95
2022-11-25T10:40:52.998Z,5.32
2022-11-25T10:43:27.308Z,3.42
2022-11-25T10:46:11.353Z,7.18
2022-11-25T10:48:56.985Z,3.33
2022-11-25T10:51:39.218Z,4.57
2022-11-25T10:54:27.303Z,5.93
2022-11-25T10:56:59.669Z,4.18
2022-11-25T10:59:32.271Z,3.17
2022-11-25T11:02:20.362Z,4.82
2022-11-25T11:04:59.936Z,2.72
2022-11-25T11:07:33.163Z,5.35
2022-11-25T11:10:21.893Z,3.30
2022-11-25T11:13:00.425Z,6.90
2022-11-25T11:15:32.772Z,5.80
2022-11-25T11:18:16.858Z,6.70
2022-11-25T11:20:49.699Z,3.42
2022-11-25T11:23:20.122Z,2.65
2022-11-25T11:26:02.187Z,4.25
2022-11-25T11:28:43.001Z,4.00
2022-11-25T11:31:22.933Z,2.22
2022-11-25T11:34:01.266Z,5.13
2022-11-25T11:36:50.997Z,2.28
2022-11-25T11:39:35.969Z,2.42
2022-11-25T11:42:16.439Z,3.97
2022-11-25T11:45:04.075Z,1.80
2022-11-25T11:47:42.967Z,3.38
2022-11-25T11:50:34.126Z,5.85
2022-11-25T11:53:24.105Z,3.53
2022-11-25T11:56:33.105Z,4.95
2022-11-25T11:59:04.626Z,3.47
2022-11-25T12:01:46.525Z,5.03
2022-11-25T12:04:21.603Z,3.50
2022-11-25T12:07:06.348Z,3.85
2022-11-25T12:09:43.189Z,2.42
2022-11-25T12:12:19.283Z,4.65
2022-11-25T12:14:54.849Z,3.10
2022-11-25T12:17:33.102Z,8.40
2022-11-25T12:20:10.232Z,11.07
2022-11-25T12:22:50.049Z,8.68
2022-11-25T12:25:25.127Z,6.13
2022-11-25T12:28:00.845Z,6.10
2022-11-25T12:30:40.025Z,4.28
2022-11-25T12:33:17.484Z,4.65
2022-11-25T12:35:58.117Z,2.33
2022-11-25T12:38:40.176Z,5.22
2022-11-25T12:41:22.236Z,4.53
2022-11-25T12:43:57.696Z,3.35
2022-11-25T12:46:38.213Z,3.78
2022-11-25T12:49:13.157Z,4.88
2022-11-25T12:52:02.314Z,3.45
2022-11-25T12:54:56.370Z,3.63
2022-11-25T12:57:50.108Z,8.10
2022-11-25T13:00:42.225Z,7.78
2022-11-25T13:03:39.458Z,5.07
2022-11-25T13:06:34.762Z,6.30
2022-11-25T13:09:16.416Z,4.88
2022-11-25T13:12:14.299Z,3.80
2022-11-25T13:15:10.629Z,3.17
2022-11-25T13:17:44.487Z,10.07
2022-11-25T13:20:53.552Z,7.60
2022-11-25T13:23:31.257Z,2.80
2022-11-25T13:26:40.212Z,3.40
2022-11-25T13:30:00.814Z,2.80
2022-11-25T13:32:39.031Z,4.90
2022-11-25T13:35:51.042Z,3.63
2022-11-25T13:38:59.755Z,4.40
2022-11-25T13:41:44.771Z,5.88
2022-11-25T13:44:29.736Z,5.32
2022-11-25T13:47:02.862Z,3.97
2022-11-25T13:49:41.226Z,5.43
2022-11-25T13:52:37.869Z,4.00
2022-11-25T13:55:24.805Z,4.18
2022-11-25T13:58:10.481Z,5.93
2022-11-25T14:01:27.854Z,5.85
2022-11-25T14:04:02.645Z,4.78
2022-11-25T14:07:05.693Z,3.42
2022-11-25T14:09:57.442Z,5.45
2022-11-25T14:12:55.986Z,5.25
2022-11-25T14:15:50.458Z,4.07
2022-11-25T14:19:21.653Z,3.75
2022-11-25T14:22:01.708Z,3.83
2022-11-25T14:24:37.004Z,5.82
2022-11-25T14:27:18.201Z,2.97
2022-11-25T14:29:54.142Z,3.30
2022-11-25T14:32:29.130Z,4.72
2022-11-25T14:35:07.061Z,3.90
2022-11-25T14:37:44.536Z,4.70
2022-11-25T14:40:20.740Z,5.38
2022-11-25T14:43:00.982Z,6.97
2022-11-25T14:45:33.467Z,8.55
2022-11-25T14:48:16.564Z,8.68
2022-11-25T14:50:58.043Z,6.60
2022-11-25T14:53:28.478Z,6.32
2022-11-25T14:56:00.845Z,11.57
2022-11-25T14:58:33.895Z,8.75
2022-11-25T15:01:07.646Z,9.27
2022-11-25T15:03:38.111Z,8.77
2022-11-25T15:06:09.457Z,8.02
2022-11-25T15:08:44.285Z,8.55
2022-11-25T15:11:19.166Z,8.40
2022-11-25T15:13:56.567Z,13.90
2022-11-25T15:16:33.649Z,8.52
2022-11-25T15:19:05.635Z,11.10
2022-11-25T15:22:00.068Z,10.02
2022-11-25T15:24:30.339Z,10.15
2022-11-25T15:27:02.640Z,11.18
2022-11-25T15:29:44.558Z,11.77
2022-11-25T15:32:19.635Z,10.27
2022-11-25T15:34:50.654Z,10.10
2022-11-25T15:37:21.013Z,16.13
2022-11-25T15:39:51.258Z,12.82
2022-11-25T15:42:24.704Z,14.10
2022-11-25T15:45:07.187Z,12.15
2022-11-25T15:47:38.906Z,14.57
2022-11-25T15:50:20.789Z,10.15
2022-11-25T15:52:54.361Z,10.20
2022-11-25T15:55:33.684Z,10.50
2022-11-25T15:58:09.240Z,11.68
2022-11-25T16:00:42.472Z,11.25
2022-11-25T16:03:24.143Z,12.07
2022-11-25T16:05:58.451Z,12.52
2022-11-25T16:08:37.775Z,12.02
2022-11-25T16:11:19.382Z,11.90
2022-11-25T16:13:50.206Z,16.85
2022-11-25T16:16:28.879Z,14.80
2022-11-25T16:19:22.096Z,11.80
2022-11-25T16:22:02.761Z,15.20
2022-11-25T16:24:48.774Z,18.80
2022-11-25T16:27:30.143Z,16.17
2022-11-25T16:30:10.964Z,12.45
2022-11-25T16:32:43.590Z,16.30
2022-11-25T16:35:16.517Z,14.38
2022-11-25T16:37:49.256Z,16.60
2022-11-25T16:40:20.708Z,12.27
2022-11-25T16:42:53.476Z,14.68
2022-11-25T16:45:25.126Z,11.98
2022-11-25T16:47:58.371Z,14.57
2022-11-25T16:50:28.720Z,10.38
2022-11-25T16:52:58.977Z,14.82
2022-11-25T16:55:29.300Z,15.88
2022-11-25T16:57:59.605Z,13.70
2022-11-25T17:00:30.085Z,11.80
2022-11-25T17:03:03.165Z,20.77
2022-11-25T17:05:33.590Z,39.35
2022-11-25T17:08:03.915Z,17.95
2022-11-25T17:10:34.311Z,15.63
2022-11-25T17:13:04.969Z,18.25
2022-11-25T17:15:36.384Z,19.13
2022-11-25T17:18:11.103Z,19.15
2022-11-25T17:23:14.969Z,12.13
2022-11-25T17:25:48.793Z,16.50
2022-11-25T17:28:20.764Z,14.98
2022-11-25T17:30:51.330Z,15.43
2022-11-25T17:33:24.345Z,13.02
2022-11-25T17:35:54.667Z,20.65
2022-11-25T17:38:24.978Z,22.58
2022-11-25T17:40:55.334Z,20.42
2022-11-25T17:43:28.094Z,20.55
2022-11-25T17:46:02.022Z,18.20
2022-11-25T17:48:35.056Z,19.15
2022-11-25T17:51:07.560Z,21.60
2022-11-25T17:53:40.026Z,23.17
2022-11-25T17:56:20.491Z,20.10
2022-11-25T17:58:50.712Z,17.02
2022-11-25T18:01:21.436Z,21.63
2022-11-25T18:03:54.593Z,25.02
2022-11-25T18:06:25.261Z,20.83
2022-11-25T18:08:55.652Z,17.17
2022-11-25T18:11:26.098Z,21.45
2022-11-25T18:13:56.540Z,15.65
2022-11-25T18:16:28.877Z,15.60
2022-11-25T18:19:02.070Z,16.52
2022-11-25T18:21:32.738Z,17.70
2022-11-25T18:24:03.092Z,20.67
2022-11-25T18:26:34.816Z,18.55
2022-11-25T18:29:05.555Z,17.63
2022-11-25T18:31:35.983Z,17.33
2022-11-25T18:34:12.583Z,17.75
2022-11-25T18:36:43.169Z,20.15
2022-11-25T18:39:13.847Z,17.15
2022-11-25T18:41:45.344Z,14.88
2022-11-25T18:44:25.879Z,22.13
2022-11-25T18:46:57.026Z,20.02
2022-11-25T18:49:29.989Z,13.75
2022-11-25T18:52:00.705Z,23.70
2022-11-25T18:54:31.229Z,16.27
2022-11-25T18:57:01.680Z,18.98
2022-11-25T18:59:33.216Z,21.60
2022-11-25T19:02:04.109Z,19.77
2022-11-25T19:04:37.368Z,15.80
2022-11-25T19:07:07.944Z,21.55
2022-11-25T19:09:38.280Z,16.98
2022-11-25T19:12:09.573Z,19.02
2022-11-25T19:14:42.891Z,17.67
2022-11-25T19:17:20.011Z,15.98
2022-11-25T19:19:53.168Z,17.50
2022-11-25T19:22:26.635Z,19.05
2022-11-25T19:24:59.070Z,22.02
2022-11-25T19:27:29.766Z,22.15
2022-11-25T19:30:00.052Z,19.05
2022-11-25T19:32:31.448Z,20.10
2022-11-25T19:35:06.354Z,25.23
2022-11-25T19:37:36.636Z,31.05
2022-11-25T19:40:10.746Z,28.10
2022-11-25T19:42:41.025Z,28.67
2022-11-25T19:45:13.602Z,27.25
2022-11-25T19:47:43.967Z,28.08
2022-11-25T19:50:22.978Z,25.95
2022-11-25T19:52:53.706Z,25.83
2022-11-25T19:55:24.627Z,27.60
2022-11-25T19:57:55.676Z,22.90
2022-11-25T20:00:26.616Z,24.67
2022-11-25T20:02:57.926Z,20.55
2022-11-25T20:05:34.806Z,33.63
2022-11-25T20:08:05.342Z,26.75
2022-11-25T20:10:36.228Z,30.63
2022-11-25T20:13:06.584Z,23.40
2022-11-25T20:15:36.877Z,21.98
2022-11-25T20:18:07.484Z,26.20
2022-11-25T20:20:41.630Z,32.90
2022-11-25T20:23:16.068Z,20.83
2022-11-25T20:25:47.553Z,32.10
2022-11-25T20:28:19.265Z,22.10
2022-11-25T20:30:50.421Z,19.70
2022-11-25T20:33:24.315Z,27.25
2022-11-25T20:36:02.301Z,18.65
2022-11-25T20:38:33.696Z,24.67
2022-11-25T20:41:05.447Z,18.70
2022-11-25T20:43:36.777Z,24.38
2022-11-25T20:46:07.466Z,23.35
2022-11-25T20:48:38.169Z,19.23
2022-11-25T20:51:18.539Z,21.08
2022-11-25T20:53:51.471Z,20.25
2022-11-25T20:56:22.525Z,19.50
2022-11-25T20:58:52.984Z,25.02
2022-11-25T21:01:23.404Z,23.10
2022-11-25T21:03:54.135Z,21.90
2022-11-25T21:06:28.645Z,24.05
2022-11-25T21:09:00.135Z,20.38
2022-11-25T21:11:33.108Z,20.17
2022-11-25T21:14:03.564Z,21.50
2022-11-25T21:16:33.894Z,16.92
2022-11-25T21:19:04.143Z,20.30
2022-11-25T21:21:37.850Z,21.83
2022-11-25T21:24:11.133Z,19.38
2022-11-25T21:26:41.525Z,19.60
2022-11-25T21:29:15.937Z,23.08
2022-11-25T21:34:17.437Z,28.38
2022-11-25T21:36:52.205Z,22.90
2022-11-25T21:39:30.226Z,25.30
2022-11-25T21:42:04.961Z,21.42
2022-11-25T21:44:38.492Z,22.27
2022-11-25T21:47:15.682Z,23.55
2022-11-25T21:49:46.050Z,18.42
2022-11-25T21:52:19.210Z,25.58
2022-11-25T21:54:49.739Z,30.73
2022-11-25T21:57:20.702Z,31.13
2022-11-25T21:59:51.116Z,29.30
2022-11-25T22:02:22.310Z,31.48
2022-11-25T22:04:55.046Z,25.13
2022-11-25T22:07:30.982Z,22.98
2022-11-25T22:10:01.675Z,28.80
2022-11-25T22:12:39.595Z,26.00
2022-11-25T22:15:15.795Z,20.30
2022-11-25T22:17:46.449Z,24.38
2022-11-25T22:20:27.241Z,23.02
2022-11-25T22:23:00.386Z,22.88
2022-11-25T22:25:32.063Z,25.45
2022-11-25T22:28:02.518Z,20.23
2022-11-25T22:30:32.844Z,28.23
2022-11-25T22:33:04.356Z,21.83
2022-11-25T22:35:34.686Z,22.40
2022-11-25T22:38:09.650Z,23.27
2022-11-25T22:40:39.985Z,20.00
2022-11-25T22:43:14.914Z,19.80
2022-11-25T22:45:45.463Z,18.98
2022-11-25T22:48:19.004Z,18.90
2022-11-25T22:50:49.929Z,23.40
2022-11-25T22:53:25.744Z,25.00
2022-11-25T22:55:58.134Z,24.95
2022-11-25T22:58:28.986Z,27.45
2022-11-25T23:01:00.223Z,27.95
2022-11-25T23:03:34.161Z,30.25
2022-11-25T23:06:05.444Z,30.20
2022-11-25T23:08:38.358Z,35.25
2022-11-25T23:11:09.021Z,31.35
2022-11-25T23:13:39.419Z,33.88
2022-11-25T23:16:10.122Z,27.35
2022-11-25T23:18:42.801Z,35.05
2022-11-25T23:21:20.167Z,37.25
2022-11-25T23:23:53.198Z,35.08
2022-11-25T23:26:23.458Z,30.55
2022-11-25T23:28:53.702Z,39.22
2022-11-25T23:31:25.623Z,37.40
2022-11-25T23:33:55.985Z,32.72
2022-11-25T23:36:27.923Z,35.10
2022-11-25T23:39:03.268Z,37.30
2022-11-25T23:41:34.477Z,38.42
2022-11-25T23:44:06.336Z,27.33
2022-11-25T23:46:37.813Z,32.35
2022-11-25T23:49:12.877Z,35.42
2022-11-25T23:51:43.160Z,24.17
2022-11-25T23:54:17.380Z,26.98
2022-11-25T23:56:48.882Z,29.88
2022-11-25T23:59:19.866Z,30.77
